Buoy 47557

sailwx.info

Track history (hours):
 
Tides and Currents Weather Stations Pressure Air Temp Water Temp Dewpoint Dewpoint Depression Visibility Wind Speed Wind Dir Waves Ship Positions

Drifting buoy 47557

Last reported at 2017-Sep-26 00:00 UTC. Time now 2017-Sep-26 01:41 UTC.
Position N 54°38' W 008°37'.

Barometer 1010.7 mb
Water temperature 13.0 ° C

Date/timePositionNaut miles runAvg speedWind from/ knotsBaromVisibWave heightAir tempDewpointWater temp
2017-Sep-26 00:00N 54°38' W 008°37'0 0.0 1010.7 13.0
2017-Sep-25 23:00N 54°38' W 008°37'0 0.0 1011.3 13.4
2017-Sep-25 22:00N 54°38' W 008°37'0 0.0 1011.6 14.2
2017-Sep-25 21:00N 54°38' W 008°37'0 0.0 1011.0 14.4
2017-Sep-25 20:00N 54°38' W 008°37'0 0.0 1011.3 14.2
2017-Sep-25 19:00N 54°38' W 008°37'0 0.0 1011.4 14.4
2017-Sep-25 18:00N 54°38' W 008°37'0 0.0 1011.4 15.1
2017-Sep-25 17:00N 54°38' W 008°37'0 0.0 1011.8 15.9
2017-Sep-25 16:00N 54°38' W 008°37'0 0.0 1011.4 18.0
2017-Sep-25 15:00N 54°38' W 008°37'0 0.0 1012.0 17.8
2017-Sep-25 14:00N 54°38' W 008°37'0 0.0 1012.2 19.3
2017-Sep-25 13:00N 54°38' W 008°37'0 0.0 1012.3 24.9
2017-Sep-25 12:00N 54°38' W 008°37'0 0.0 1012.3 24.9
2017-Sep-25 11:00N 54°38' W 008°37'0 0.0 1012.1 25.8
2017-Sep-25 10:00N 54°38' W 008°37'0 0.0 1012.4 25.8
2017-Sep-25 09:00N 54°38' W 008°37'0 0.0 1012.4 20.3
2017-Sep-25 08:00N 54°38' W 008°37'0 0.0 1012.2 11.4
2017-Sep-25 07:00N 54°38' W 008°37'0 0.0 1012.1 9.0
2017-Sep-25 06:00N 54°38' W 008°37'0 0.0 1011.5 8.2
2017-Sep-25 05:00N 54°38' W 008°37'0 0.0 1011.4 7.1
2017-Sep-25 04:00N 54°38' W 008°37'0 0.0 1011.5 7.3
2017-Sep-25 03:00N 54°38' W 008°37'0 0.0 1011.1 7.9
2017-Sep-25 02:00N 54°38' W 008°37'0 0.0 1011.5 8.0
2017-Sep-25 01:00N 54°38' W 008°37'0 0.0 1011.5 8.4
2017-Sep-25 00:00N 54°38' W 008°37'0 0.0 1011.4 8.8
2017-Sep-24 23:00N 54°38' W 008°37'0 0.0 1011.1 9.4
2017-Sep-24 22:00N 54°38' W 008°37'0 0.0 1011.0 10.1
2017-Sep-24 21:00N 54°38' W 008°37'0 0.0 1010.9 10.9
2017-Sep-24 20:00N 54°38' W 008°37'0 0.0 1010.2 11.1
2017-Sep-24 19:00N 54°38' W 008°37'0 0.0 1009.8 11.9
2017-Sep-24 18:00N 54°38' W 008°37'0 0.0 1009.4 13.4
2017-Sep-24 17:00N 54°38' W 008°37'0 0.0 1008.8 15.4
2017-Sep-24 16:00N 54°38' W 008°37'0 0.0 1008.4 15.2
2017-Sep-24 15:00N 54°38' W 008°37'0 0.0 1007.9 15.9
2017-Sep-24 14:00N 54°38' W 008°37'0 0.0 1007.5 23.0
2017-Sep-24 13:00N 54°38' W 008°37'0 0.0 1007.4 18.5
2017-Sep-24 12:00N 54°38' W 008°37'0 0.0 1006.8 19.3
2017-Sep-24 11:00N 54°38' W 008°37'0 0.0 1006.3 15.6
2017-Sep-24 10:00N 54°38' W 008°37'0 0.0 1005.8 14.2
2017-Sep-24 09:00N 54°38' W 008°37'0 0.0 1005.5 13.1
2017-Sep-24 08:00N 54°38' W 008°37'0 0.0 1005.2 12.7
2017-Sep-24 07:00N 54°38' W 008°37'0 0.0 1004.4 12.4
2017-Sep-24 06:00N 54°38' W 008°37'0 0.0 1003.7 12.3
2017-Sep-24 05:00N 54°38' W 008°37'0 0.0 1003.4 12.4
2017-Sep-24 04:00N 54°38' W 008°37'0 0.0 1002.8 12.4
2017-Sep-24 03:00N 54°38' W 008°37'0 0.0 1002.4 12.6
2017-Sep-24 02:00N 54°38' W 008°37'0 0.0 1002.0 12.6
2017-Sep-24 01:00N 54°38' W 008°37'0 0.0 1001.7 12.9
2017-Sep-23 23:00N 54°38' W 008°37'0 0.0 1000.7 13.9
2017-Sep-23 22:00N 54°38' W 008°37'0 0.0 1000.3 13.9
2017-Sep-23 21:00N 54°38' W 008°37'0 0.0 999.7 14.0
2017-Sep-23 20:00N 54°38' W 008°37'0 0.0 999.5 13.8
2017-Sep-23 19:00N 54°38' W 008°37'0 0.0 998.6 14.4
2017-Sep-23 18:00N 54°38' W 008°37'0 0.0 998.2 14.7
2017-Sep-23 17:00N 54°38' W 008°37'0 0.0 997.9 15.4
2017-Sep-23 16:00N 54°38' W 008°37'0 0.0 998.0 15.3
2017-Sep-23 15:00N 54°38' W 008°37'0 0.0 998.1 15.3
2017-Sep-23 14:00N 54°38' W 008°37'0 0.0 998.4 15.9
2017-Sep-23 13:00N 54°38' W 008°37'0 0.0 998.6 16.3
2017-Sep-23 12:00N 54°38' W 008°37'0 0.0 998.7 16.5
2017-Sep-23 11:00N 54°38' W 008°37'0 0.0 999.3 16.2
2017-Sep-23 10:00N 54°38' W 008°37'0 0.0 999.9 15.9
2017-Sep-23 09:00N 54°38' W 008°37'0 0.0 1000.2 15.4
2017-Sep-23 08:00N 54°38' W 008°37'0 0.0 999.9 14.9
2017-Sep-23 07:00N 54°38' W 008°37'0 0.0 999.8 14.7
2017-Sep-23 06:00N 54°38' W 008°37'0 0.0 1000.3 13.8
2017-Sep-23 05:00N 54°38' W 008°37'0 0.0 1000.5 13.4
2017-Sep-23 04:00N 54°38' W 008°37'0 0.0 1001.1 13.2
2017-Sep-23 03:00N 54°38' W 008°37'0 0.0 1001.4 12.3
2017-Sep-23 02:00N 54°38' W 008°37'0 0.0 1002.2 11.3
2017-Sep-23 01:00N 54°38' W 008°37'0 0.0 1002.8 11.3
2017-Sep-23 00:00N 54°38' W 008°37'0 0.0 1003.5 10.9
2017-Sep-22 23:00N 54°38' W 008°37'0 0.0 1003.7 10.6
2017-Sep-22 22:00N 54°38' W 008°37'0 0.0 1004.0 10.7
2017-Sep-22 21:00N 54°38' W 008°37'0 0.0 1004.6 10.8
2017-Sep-22 20:00N 54°38' W 008°37'0 0.0 1004.5 10.6
2017-Sep-22 19:00N 54°38' W 008°37'0 0.0 1004.1 11.5
2017-Sep-22 18:00N 54°38' W 008°37'0 0.0 1004.2 13.0
2017-Sep-22 17:00N 54°38' W 008°37'0 0.0 1003.8 14.4
2017-Sep-22 16:00N 54°38' W 008°37'0 0.0 1003.3 14.4
2017-Sep-22 15:00N 54°38' W 008°37'0 0.0 1003.3 15.0
2017-Sep-22 14:00N 54°38' W 008°37'0 0.0 1002.4 14.9
2017-Sep-22 13:00N 54°38' W 008°37'0 0.0 1000.9 15.2
2017-Sep-22 12:00N 54°38' W 008°37'0 0.0 999.4 17.4
2017-Sep-22 11:00N 54°38' W 008°37'0 0.0 997.8 16.4
2017-Sep-22 10:00N 54°38' W 008°37'0 0.0 997.1 13.6
2017-Sep-22 09:00N 54°38' W 008°37'0 0.0 996.5 12.4
2017-Sep-22 08:00N 54°38' W 008°37'0 0.0 996.3 11.5
2017-Sep-22 07:00N 54°38' W 008°37'0 0.0 996.6 10.6
2017-Sep-22 06:00N 54°38' W 008°37'0 0.0 997.4 10.0
2017-Sep-22 05:00N 54°38' W 008°37'0 0.0 999.2 9.9
2017-Sep-22 04:00N 54°38' W 008°37'0 0.0 1000.0 10.2
2017-Sep-22 03:00N 54°38' W 008°37'0 0.0 1000.9 9.9
2017-Sep-22 02:00N 54°38' W 008°37'0 0.0 1001.8 10.7
2017-Sep-22 01:00N 54°38' W 008°37'0 0.0 1002.5 11.0
2017-Sep-22 00:00N 54°38' W 008°37'0 0.0 1003.1 10.5
2017-Sep-21 23:00N 54°38' W 008°37'0 0.0 1003.3 10.6
2017-Sep-21 22:00N 54°38' W 008°37'0 0.0 1003.7 10.5
2017-Sep-21 21:00N 54°38' W 008°37'0 0.0 1003.8 10.8
2017-Sep-21 20:00N 54°38' W 008°37'0 0.0 1004.0 10.3
2017-Sep-21 19:00N 54°38' W 008°37'0 0.0 1003.8 11.6
2017-Sep-21 18:00N 54°38' W 008°37'0 0.0 1003.7 12.5
2017-Sep-21 17:00N 54°38' W 008°37'0 0.0 1003.8 13.2
2017-Sep-21 16:00N 54°38' W 008°37'0 0.0 1003.6 14.2
2017-Sep-21 15:00N 54°38' W 008°37'0 0.0 1004.0 20.2
2017-Sep-21 14:00N 54°38' W 008°37'0 0.0 1004.1 16.3
2017-Sep-21 13:00N 54°38' W 008°37'0 0.0 1003.7 25.2
2017-Sep-21 12:00N 54°38' W 008°37'0 0.0 1003.8 24.4
2017-Sep-21 11:00N 54°38' W 008°37'0 0.0 1003.8 23.3
2017-Sep-21 10:00N 54°38' W 008°37'0 0.0 1003.4 22.5
2017-Sep-21 09:00N 54°38' W 008°37'0 0.0 1003.3 18.5
2017-Sep-21 08:00N 54°38' W 008°37'0 0.0 1003.0 12.2
2017-Sep-21 07:00N 54°38' W 008°37'0 0.0 1002.6 8.7
2017-Sep-21 06:00N 54°38' W 008°37'0 0.0 1002.4 7.2
2017-Sep-21 05:00N 54°38' W 008°37'0 0.0 1001.8 7.1
2017-Sep-21 04:00N 54°38' W 008°37'0 0.0 1001.9 7.5
2017-Sep-21 03:00N 54°38' W 008°37'0 0.0 1002.0 8.2
2017-Sep-21 02:00N 54°38' W 008°37'0 0.0
2017-Sep-21 01:00N 54°38' W 008°37'0 0.0
2017-Sep-21 00:00N 54°38' W 008°37'0 0.0 1002.4 9.1
2017-Sep-20 23:00N 54°38' W 008°37'0 0.0 1002.4 9.4
2017-Sep-20 22:00N 54°38' W 008°37'0 0.0 1002.0 9.8
2017-Sep-20 21:00N 54°38' W 008°37'0 0.0 1002.5 9.9
2017-Sep-20 20:00N 54°38' W 008°37'0 0.0 1002.4 10.4
2017-Sep-20 19:00N 54°38' W 008°37'0 0.0 1002.4 10.7
2017-Sep-20 18:00N 54°38' W 008°37'0 0.0 1002.4 11.8
2017-Sep-20 17:00N 54°38' W 008°37'0 0.0 1002.3 11.8
2017-Sep-20 16:00N 54°38' W 008°37'0 0.0 1002.2 12.0
2017-Sep-20 15:00N 54°38' W 008°37'0 0.0 1002.5 12.5
2017-Sep-20 14:00N 54°38' W 008°37'0 0.0 1002.4 12.7
2017-Sep-20 13:00N 54°38' W 008°37'0 0.0 1002.5 13.0
2017-Sep-20 12:00N 54°38' W 008°37'0 0.0 1002.6 12.6
2017-Sep-20 11:00N 54°38' W 008°37'0 0.0 1002.8 12.9
2017-Sep-20 10:00N 54°38' W 008°37'0 0.0 1002.9 12.1
2017-Sep-20 09:00N 54°38' W 008°37'0 0.0 1002.8 11.8
2017-Sep-20 08:00N 54°38' W 008°37'0 0.0 1002.2 11.6
2017-Sep-20 07:00N 54°38' W 008°37'0 0.0 1002.0 11.2
2017-Sep-20 06:00N 54°38' W 008°37'0 0.0 1001.6 12.1
2017-Sep-20 05:00N 54°38' W 008°37'0 0.0 1001.2 13.5
2017-Sep-20 04:00N 54°38' W 008°37'0 0.0 1001.2 13.5
2017-Sep-20 03:00N 54°38' W 008°37'0 0.0 1001.5 13.6
2017-Sep-20 02:00N 54°38' W 008°37'0 0.0 1002.0 13.5
2017-Sep-20 01:00N 54°38' W 008°37'0 0.0 1002.6 13.6
2017-Sep-20 00:00N 54°38' W 008°37'0 0.0 1002.9 14.5
2017-Sep-19 23:00N 54°38' W 008°37'0 0.0 1003.6 14.5
2017-Sep-19 22:00N 54°38' W 008°37'0 0.0 1004.2 14.4
2017-Sep-19 21:00N 54°38' W 008°37'0 0.0 1004.7 14.4
2017-Sep-19 20:00N 54°38' W 008°37'0 0.0 1005.2 14.4
2017-Sep-19 19:00N 54°38' W 008°37'0 0.0 1005.8 14.3
2017-Sep-19 18:00N 54°38' W 008°37'0 0.0 1006.3 14.3
2017-Sep-19 17:00N 54°38' W 008°37'0 0.0 1006.6 14.3
2017-Sep-19 16:00N 54°38' W 008°37'0 0.0 1006.8 14.3
2017-Sep-19 15:00N 54°38' W 008°37'0 0.0 1007.5 14.5
2017-Sep-19 14:00N 54°38' W 008°37'0 0.0 1008.0 15.0
2017-Sep-19 13:00N 54°38' W 008°37'0 0.0 1008.7 16.1
2017-Sep-19 12:00N 54°38' W 008°37'0 0.0 1009.2 15.7
2017-Sep-19 11:00N 54°38' W 008°37'0 0.0 1009.6 15.2
2017-Sep-19 10:00N 54°38' W 008°37'0 0.0 1009.7 16.3
2017-Sep-19 09:00N 54°38' W 008°37'0 0.0 1009.5 14.4
2017-Sep-19 08:00N 54°38' W 008°37'0 0.0 1009.8 12.2
2017-Sep-19 07:00N 54°38' W 008°37'0 0.0 1009.9 11.9
2017-Sep-19 06:00N 54°38' W 008°37'0 0.0 1010.1 11.7
2017-Sep-19 05:00N 54°38' W 008°37'0 0.0 1010.2 12.0
2017-Sep-19 04:00N 54°38' W 008°37'0 0.0 1010.5 11.7
2017-Sep-19 03:00N 54°38' W 008°37'0 0.0 1011.0 11.5
2017-Sep-19 02:00N 54°38' W 008°37'0 0.0 1011.3 11.5
2017-Sep-19 01:00N 54°38' W 008°37'0 0.0 1011.6 11.7
2017-Sep-19 00:00N 54°38' W 008°37'0 0.0 1011.5 11.8
2017-Sep-18 23:00N 54°38' W 008°37'0 0.0 1012.0 11.4
2017-Sep-18 22:00N 54°38' W 008°37'0 0.0 1012.2 11.2
2017-Sep-18 21:00N 54°38' W 008°37'0 0.0 1012.4 11.7
2017-Sep-18 20:00N 54°38' W 008°37'0 0.0 1012.4 12.6
2017-Sep-18 19:00N 54°38' W 008°37'0 0.0 1012.3 15.3
2017-Sep-18 18:00N 54°38' W 008°37'0 0.0 1012.3 17.2
2017-Sep-18 17:00N 54°38' W 008°37'0 0.0 1012.4 19.7
2017-Sep-18 16:00N 54°38' W 008°37'0 0.0 1012.5 21.8
2017-Sep-18 15:00N 54°38' W 008°37'0 0.0 1012.9 22.9
2017-Sep-18 14:00N 54°38' W 008°37'0 0.0 1013.3 23.4
2017-Sep-18 13:00N 54°38' W 008°37'0 0.0 1013.2 24.5
2017-Sep-18 12:00N 54°38' W 008°37'0 0.0 1013.4 25.6
2017-Sep-18 11:00N 54°38' W 008°37'0 0.0 1013.3 25.3
2017-Sep-18 10:00N 54°38' W 008°37'0 0.0 1013.5 25.2
2017-Sep-18 09:00N 54°38' W 008°37'0 0.0 1013.4 24.4
2017-Sep-18 08:00N 54°38' W 008°37'0 0.0 1013.2 18.7
2017-Sep-18 07:00N 54°38' W 008°37'0 0.0 1013.1 7.8
2017-Sep-18 06:00N 54°38' W 008°37'0 0.0 1012.9 7.3
2017-Sep-18 05:00N 54°38' W 008°37'0 0.0 1012.7 7.8
2017-Sep-18 04:00N 54°38' W 008°37'0 0.0 1012.8 7.6
2017-Sep-18 03:00N 54°38' W 008°37'0 0.0 1012.8 7.7
2017-Sep-18 02:00N 54°38' W 008°37'0 0.0 1012.8 7.7
2017-Sep-18 01:00N 54°38' W 008°37'0 0.0 1012.9 7.9
2017-Sep-18 00:00N 54°38' W 008°37'0 0.0 1012.9 8.2
2017-Sep-17 23:00N 54°38' W 008°37'0 0.0 1012.8 9.0
2017-Sep-17 22:00N 54°38' W 008°37'0 0.0 1013.0 10.2
2017-Sep-17 21:00N 54°38' W 008°37'0 0.0 1012.9 10.8
2017-Sep-17 20:00N 54°38' W 008°37'0 0.0 1013.0 11.6
2017-Sep-17 19:00N 54°38' W 008°37'0 0.0 1012.7 13.0
2017-Sep-17 18:00N 54°38' W 008°37'0 0.0 1012.4 15.6
2017-Sep-17 17:00N 54°38' W 008°37'0 0.0 1012.0 17.8
2017-Sep-17 16:00N 54°38' W 008°37'0 0.0 1011.7 18.5
2017-Sep-17 15:00N 54°38' W 008°37'0 0.0 1011.6 19.8
2017-Sep-17 14:00N 54°38' W 008°37'0 0.0 1011.6 24.1
2017-Sep-17 13:00N 54°38' W 008°37'0 0.0 1011.9 25.0
2017-Sep-17 12:00N 54°38' W 008°37'0 0.0 1011.6 22.4
2017-Sep-17 11:00N 54°38' W 008°37'0 0.0 1011.6 22.2
2017-Sep-17 10:00N 54°38' W 008°37'0 0.0 1011.6 22.3
2017-Sep-17 09:00N 54°38' W 008°37'0 0.0 1011.4 20.8
2017-Sep-17 08:00N 54°38' W 008°37'0 0.0 1011.0 20.1
2017-Sep-17 07:00N 54°38' W 008°37'0 0.0 1010.7 10.4
2017-Sep-17 06:00N 54°38' W 008°37'0 0.0 1010.1 6.8
2017-Sep-17 05:00N 54°38' W 008°37'0 0.0 1009.4 6.5
2017-Sep-17 04:00N 54°38' W 008°37'0 0.0 1009.4 7.1
2017-Sep-17 03:00N 54°38' W 008°37'0 0.0 1009.2 6.9
2017-Sep-17 02:00N 54°38' W 008°37'0 0.0 1009.2 7.3
2017-Sep-17 01:00N 54°38' W 008°37'0 0.0 1009.1 7.1
2017-Sep-17 00:00N 54°38' W 008°37'0 0.0 1008.9 6.8
2017-Sep-16 23:00N 54°38' W 008°37'0 0.0 1008.7 7.1
2017-Sep-16 22:00N 54°38' W 008°37'0 0.0 1008.4 7.5
2017-Sep-16 21:00N 54°38' W 008°37'0 0.0 1008.2 8.3
2017-Sep-16 20:00N 54°38' W 008°37'0 0.0 1008.2 9.4
2017-Sep-16 19:00N 54°38' W 008°37'0 0.0 1007.9 10.0
2017-Sep-16 18:00N 54°38' W 008°37'0 0.0 1007.9 10.5
2017-Sep-16 17:00N 54°38' W 008°37'0 0.0 1007.9 10.9
2017-Sep-16 16:00N 54°38' W 008°37'0 0.0 1007.9 11.3
2017-Sep-16 15:00N 54°38' W 008°37'0 0.0 1008.2 11.0
2017-Sep-16 14:00N 54°38' W 008°37'0 0.0 1008.6 10.9
2017-Sep-16 13:00N 54°38' W 008°37'0 0.0 1009.0 12.1
2017-Sep-16 12:00N 54°38' W 008°37'0 0.0 1009.2 11.9
2017-Sep-16 11:00N 54°38' W 008°37'0 0.0 1009.5 11.8
2017-Sep-16 10:00N 54°38' W 008°37'0 0.0 1009.6 12.4
2017-Sep-16 09:00N 54°38' W 008°37'0 0.0 1009.6 10.6
2017-Sep-16 08:00N 54°38' W 008°37'0 0.0 1009.9 10.1
2017-Sep-16 07:00N 54°38' W 008°37'0 0.0 1010.0 9.6
2017-Sep-16 06:00N 54°38' W 008°37'0 0.0 1010.1 9.6
2017-Sep-16 05:00N 54°38' W 008°37'0 0.0 1009.9 9.8
2017-Sep-16 04:00N 54°38' W 008°37'0 0.0 1010.6 9.9
2017-Sep-16 03:00N 54°38' W 008°37'0 0.0 1010.8 9.8
2017-Sep-16 02:00N 54°38' W 008°37'0 0.0 1011.1 9.7
2017-Sep-16 01:00N 54°38' W 008°37'0 0.0 1011.5 10.0
2017-Sep-16 00:00N 54°38' W 008°37'   1011.8 10.2
Track history (hours):
 
Tides and Currents Weather Stations Pressure Air Temp Water Temp Dewpoint Dewpoint Depression Visibility Wind Speed Wind Dir Waves Ship Positions

Drifting buoy 47557

Last reported at 2017-Sep-26 00:00 UTC. Time now 2017-Sep-26 01:41 UTC.
Position N 54°38' W 008°37'.

Barometer 1010.7 mb
Water temperature 13.0 ° C

Date/timePositionNaut miles runAvg speedWind from/ knotsBaromVisibWave heightAir tempDewpointWater temp
2017-Sep-26 00:00N 54°38' W 008°37'0 0.0 1010.7 13.0
2017-Sep-25 23:00N 54°38' W 008°37'0 0.0 1011.3 13.4
2017-Sep-25 22:00N 54°38' W 008°37'0 0.0 1011.6 14.2
2017-Sep-25 21:00N 54°38' W 008°37'0 0.0 1011.0 14.4
2017-Sep-25 20:00N 54°38' W 008°37'0 0.0 1011.3 14.2
2017-Sep-25 19:00N 54°38' W 008°37'0 0.0 1011.4 14.4
2017-Sep-25 18:00N 54°38' W 008°37'0 0.0 1011.4 15.1
2017-Sep-25 17:00N 54°38' W 008°37'0 0.0 1011.8 15.9
2017-Sep-25 16:00N 54°38' W 008°37'0 0.0 1011.4 18.0
2017-Sep-25 15:00N 54°38' W 008°37'0 0.0 1012.0 17.8
2017-Sep-25 14:00N 54°38' W 008°37'0 0.0 1012.2 19.3
2017-Sep-25 13:00N 54°38' W 008°37'0 0.0 1012.3 24.9
2017-Sep-25 12:00N 54°38' W 008°37'0 0.0 1012.3 24.9
2017-Sep-25 11:00N 54°38' W 008°37'0 0.0 1012.1 25.8
2017-Sep-25 10:00N 54°38' W 008°37'0 0.0 1012.4 25.8
2017-Sep-25 09:00N 54°38' W 008°37'0 0.0 1012.4 20.3
2017-Sep-25 08:00N 54°38' W 008°37'0 0.0 1012.2 11.4
2017-Sep-25 07:00N 54°38' W 008°37'0 0.0 1012.1 9.0
2017-Sep-25 06:00N 54°38' W 008°37'0 0.0 1011.5 8.2
2017-Sep-25 05:00N 54°38' W 008°37'0 0.0 1011.4 7.1
2017-Sep-25 04:00N 54°38' W 008°37'0 0.0 1011.5 7.3
2017-Sep-25 03:00N 54°38' W 008°37'0 0.0 1011.1 7.9
2017-Sep-25 02:00N 54°38' W 008°37'0 0.0 1011.5 8.0
2017-Sep-25 01:00N 54°38' W 008°37'0 0.0 1011.5 8.4
2017-Sep-25 00:00N 54°38' W 008°37'0 0.0 1011.4 8.8
2017-Sep-24 23:00N 54°38' W 008°37'0 0.0 1011.1 9.4
2017-Sep-24 22:00N 54°38' W 008°37'0 0.0 1011.0 10.1
2017-Sep-24 21:00N 54°38' W 008°37'0 0.0 1010.9 10.9
2017-Sep-24 20:00N 54°38' W 008°37'0 0.0 1010.2 11.1
2017-Sep-24 19:00N 54°38' W 008°37'0 0.0 1009.8 11.9
2017-Sep-24 18:00N 54°38' W 008°37'0 0.0 1009.4 13.4
2017-Sep-24 17:00N 54°38' W 008°37'0 0.0 1008.8 15.4
2017-Sep-24 16:00N 54°38' W 008°37'0 0.0 1008.4 15.2
2017-Sep-24 15:00N 54°38' W 008°37'0 0.0 1007.9 15.9
2017-Sep-24 14:00N 54°38' W 008°37'0 0.0 1007.5 23.0
2017-Sep-24 13:00N 54°38' W 008°37'0 0.0 1007.4 18.5
2017-Sep-24 12:00N 54°38' W 008°37'0 0.0 1006.8 19.3
2017-Sep-24 11:00N 54°38' W 008°37'0 0.0 1006.3 15.6
2017-Sep-24 10:00N 54°38' W 008°37'0 0.0 1005.8 14.2
2017-Sep-24 09:00N 54°38' W 008°37'0 0.0 1005.5 13.1
2017-Sep-24 08:00N 54°38' W 008°37'0 0.0 1005.2 12.7
2017-Sep-24 07:00N 54°38' W 008°37'0 0.0 1004.4 12.4
2017-Sep-24 06:00N 54°38' W 008°37'0 0.0 1003.7 12.3
2017-Sep-24 05:00N 54°38' W 008°37'0 0.0 1003.4 12.4
2017-Sep-24 04:00N 54°38' W 008°37'0 0.0 1002.8 12.4
2017-Sep-24 03:00N 54°38' W 008°37'0 0.0 1002.4 12.6
2017-Sep-24 02:00N 54°38' W 008°37'0 0.0 1002.0 12.6
2017-Sep-24 01:00N 54°38' W 008°37'0 0.0 1001.7 12.9
2017-Sep-23 23:00N 54°38' W 008°37'0 0.0 1000.7 13.9
2017-Sep-23 22:00N 54°38' W 008°37'0 0.0 1000.3 13.9
2017-Sep-23 21:00N 54°38' W 008°37'0 0.0 999.7 14.0
2017-Sep-23 20:00N 54°38' W 008°37'0 0.0 999.5 13.8
2017-Sep-23 19:00N 54°38' W 008°37'0 0.0 998.6 14.4
2017-Sep-23 18:00N 54°38' W 008°37'0 0.0 998.2 14.7
2017-Sep-23 17:00N 54°38' W 008°37'0 0.0 997.9 15.4
2017-Sep-23 16:00N 54°38' W 008°37'0 0.0 998.0 15.3
2017-Sep-23 15:00N 54°38' W 008°37'0 0.0 998.1 15.3
2017-Sep-23 14:00N 54°38' W 008°37'0 0.0 998.4 15.9
2017-Sep-23 13:00N 54°38' W 008°37'0 0.0 998.6 16.3
2017-Sep-23 12:00N 54°38' W 008°37'0 0.0 998.7 16.5
2017-Sep-23 11:00N 54°38' W 008°37'0 0.0 999.3 16.2
2017-Sep-23 10:00N 54°38' W 008°37'0 0.0 999.9 15.9
2017-Sep-23 09:00N 54°38' W 008°37'0 0.0 1000.2 15.4
2017-Sep-23 08:00N 54°38' W 008°37'0 0.0 999.9 14.9
2017-Sep-23 07:00N 54°38' W 008°37'0 0.0 999.8 14.7
2017-Sep-23 06:00N 54°38' W 008°37'0 0.0 1000.3 13.8
2017-Sep-23 05:00N 54°38' W 008°37'0 0.0 1000.5 13.4
2017-Sep-23 04:00N 54°38' W 008°37'0 0.0 1001.1 13.2
2017-Sep-23 03:00N 54°38' W 008°37'0 0.0 1001.4 12.3
2017-Sep-23 02:00N 54°38' W 008°37'0 0.0 1002.2 11.3
2017-Sep-23 01:00N 54°38' W 008°37'0 0.0 1002.8 11.3
2017-Sep-23 00:00N 54°38' W 008°37'0 0.0 1003.5 10.9
2017-Sep-22 23:00N 54°38' W 008°37'0 0.0 1003.7 10.6
2017-Sep-22 22:00N 54°38' W 008°37'0 0.0 1004.0 10.7
2017-Sep-22 21:00N 54°38' W 008°37'0 0.0 1004.6 10.8
2017-Sep-22 20:00N 54°38' W 008°37'0 0.0 1004.5 10.6
2017-Sep-22 19:00N 54°38' W 008°37'0 0.0 1004.1 11.5
2017-Sep-22 18:00N 54°38' W 008°37'0 0.0 1004.2 13.0
2017-Sep-22 17:00N 54°38' W 008°37'0 0.0 1003.8 14.4
2017-Sep-22 16:00N 54°38' W 008°37'0 0.0 1003.3 14.4
2017-Sep-22 15:00N 54°38' W 008°37'0 0.0 1003.3 15.0
2017-Sep-22 14:00N 54°38' W 008°37'0 0.0 1002.4 14.9
2017-Sep-22 13:00N 54°38' W 008°37'0 0.0 1000.9 15.2
2017-Sep-22 12:00N 54°38' W 008°37'0 0.0 999.4 17.4
2017-Sep-22 11:00N 54°38' W 008°37'0 0.0 997.8 16.4
2017-Sep-22 10:00N 54°38' W 008°37'0 0.0 997.1 13.6
2017-Sep-22 09:00N 54°38' W 008°37'0 0.0 996.5 12.4
2017-Sep-22 08:00N 54°38' W 008°37'0 0.0 996.3 11.5
2017-Sep-22 07:00N 54°38' W 008°37'0 0.0 996.6 10.6
2017-Sep-22 06:00N 54°38' W 008°37'0 0.0 997.4 10.0
2017-Sep-22 05:00N 54°38' W 008°37'0 0.0 999.2 9.9
2017-Sep-22 04:00N 54°38' W 008°37'0 0.0 1000.0 10.2
2017-Sep-22 03:00N 54°38' W 008°37'0 0.0 1000.9 9.9
2017-Sep-22 02:00N 54°38' W 008°37'0 0.0 1001.8 10.7
2017-Sep-22 01:00N 54°38' W 008°37'0 0.0 1002.5 11.0
2017-Sep-22 00:00N 54°38' W 008°37'0 0.0 1003.1 10.5
2017-Sep-21 23:00N 54°38' W 008°37'0 0.0 1003.3 10.6
2017-Sep-21 22:00N 54°38' W 008°37'0 0.0 1003.7 10.5
2017-Sep-21 21:00N 54°38' W 008°37'0 0.0 1003.8 10.8
2017-Sep-21 20:00N 54°38' W 008°37'0 0.0 1004.0 10.3
2017-Sep-21 19:00N 54°38' W 008°37'0 0.0 1003.8 11.6
2017-Sep-21 18:00N 54°38' W 008°37'0 0.0 1003.7 12.5
2017-Sep-21 17:00N 54°38' W 008°37'0 0.0 1003.8 13.2
2017-Sep-21 16:00N 54°38' W 008°37'0 0.0 1003.6 14.2
2017-Sep-21 15:00N 54°38' W 008°37'0 0.0 1004.0 20.2
2017-Sep-21 14:00N 54°38' W 008°37'0 0.0 1004.1 16.3
2017-Sep-21 13:00N 54°38' W 008°37'0 0.0 1003.7 25.2
2017-Sep-21 12:00N 54°38' W 008°37'0 0.0 1003.8 24.4
2017-Sep-21 11:00N 54°38' W 008°37'0 0.0 1003.8 23.3
2017-Sep-21 10:00N 54°38' W 008°37'0 0.0 1003.4 22.5
2017-Sep-21 09:00N 54°38' W 008°37'0 0.0 1003.3 18.5
2017-Sep-21 08:00N 54°38' W 008°37'0 0.0 1003.0 12.2
2017-Sep-21 07:00N 54°38' W 008°37'0 0.0 1002.6 8.7
2017-Sep-21 06:00N 54°38' W 008°37'0 0.0 1002.4 7.2
2017-Sep-21 05:00N 54°38' W 008°37'0 0.0 1001.8 7.1
2017-Sep-21 04:00N 54°38' W 008°37'0 0.0 1001.9 7.5
2017-Sep-21 03:00N 54°38' W 008°37'0 0.0 1002.0 8.2
2017-Sep-21 02:00N 54°38' W 008°37'0 0.0
2017-Sep-21 01:00N 54°38' W 008°37'0 0.0
2017-Sep-21 00:00N 54°38' W 008°37'0 0.0 1002.4 9.1
2017-Sep-20 23:00N 54°38' W 008°37'0 0.0 1002.4 9.4
2017-Sep-20 22:00N 54°38' W 008°37'0 0.0 1002.0 9.8
2017-Sep-20 21:00N 54°38' W 008°37'0 0.0 1002.5 9.9
2017-Sep-20 20:00N 54°38' W 008°37'0 0.0 1002.4 10.4
2017-Sep-20 19:00N 54°38' W 008°37'0 0.0 1002.4 10.7
2017-Sep-20 18:00N 54°38' W 008°37'0 0.0 1002.4 11.8
2017-Sep-20 17:00N 54°38' W 008°37'0 0.0 1002.3 11.8
2017-Sep-20 16:00N 54°38' W 008°37'0 0.0 1002.2 12.0
2017-Sep-20 15:00N 54°38' W 008°37'0 0.0 1002.5 12.5
2017-Sep-20 14:00N 54°38' W 008°37'0 0.0 1002.4 12.7
2017-Sep-20 13:00N 54°38' W 008°37'0 0.0 1002.5 13.0
2017-Sep-20 12:00N 54°38' W 008°37'0 0.0 1002.6 12.6
2017-Sep-20 11:00N 54°38' W 008°37'0 0.0 1002.8 12.9
2017-Sep-20 10:00N 54°38' W 008°37'0 0.0 1002.9 12.1
2017-Sep-20 09:00N 54°38' W 008°37'0 0.0 1002.8 11.8
2017-Sep-20 08:00N 54°38' W 008°37'0 0.0 1002.2 11.6
2017-Sep-20 07:00N 54°38' W 008°37'0 0.0 1002.0 11.2
2017-Sep-20 06:00N 54°38' W 008°37'0 0.0 1001.6 12.1
2017-Sep-20 05:00N 54°38' W 008°37'0 0.0 1001.2 13.5
2017-Sep-20 04:00N 54°38' W 008°37'0 0.0 1001.2 13.5
2017-Sep-20 03:00N 54°38' W 008°37'0 0.0 1001.5 13.6
2017-Sep-20 02:00N 54°38' W 008°37'0 0.0 1002.0 13.5
2017-Sep-20 01:00N 54°38' W 008°37'0 0.0 1002.6 13.6
2017-Sep-20 00:00N 54°38' W 008°37'0 0.0 1002.9 14.5
2017-Sep-19 23:00N 54°38' W 008°37'0 0.0 1003.6 14.5
2017-Sep-19 22:00N 54°38' W 008°37'0 0.0 1004.2 14.4
2017-Sep-19 21:00N 54°38' W 008°37'0 0.0 1004.7 14.4
2017-Sep-19 20:00N 54°38' W 008°37'0 0.0 1005.2 14.4
2017-Sep-19 19:00N 54°38' W 008°37'0 0.0 1005.8 14.3
2017-Sep-19 18:00N 54°38' W 008°37'0 0.0 1006.3 14.3
2017-Sep-19 17:00N 54°38' W 008°37'0 0.0 1006.6 14.3
2017-Sep-19 16:00N 54°38' W 008°37'0 0.0 1006.8 14.3
2017-Sep-19 15:00N 54°38' W 008°37'0 0.0 1007.5 14.5
2017-Sep-19 14:00N 54°38' W 008°37'0 0.0 1008.0 15.0
2017-Sep-19 13:00N 54°38' W 008°37'0 0.0 1008.7 16.1
2017-Sep-19 12:00N 54°38' W 008°37'0 0.0 1009.2 15.7
2017-Sep-19 11:00N 54°38' W 008°37'0 0.0 1009.6 15.2
2017-Sep-19 10:00N 54°38' W 008°37'0 0.0 1009.7 16.3
2017-Sep-19 09:00N 54°38' W 008°37'0 0.0 1009.5 14.4
2017-Sep-19 08:00N 54°38' W 008°37'0 0.0 1009.8 12.2
2017-Sep-19 07:00N 54°38' W 008°37'0 0.0 1009.9 11.9
2017-Sep-19 06:00N 54°38' W 008°37'0 0.0 1010.1 11.7
2017-Sep-19 05:00N 54°38' W 008°37'0 0.0 1010.2 12.0
2017-Sep-19 04:00N 54°38' W 008°37'0 0.0 1010.5 11.7
2017-Sep-19 03:00N 54°38' W 008°37'0 0.0 1011.0 11.5
2017-Sep-19 02:00N 54°38' W 008°37'0 0.0 1011.3 11.5
2017-Sep-19 01:00N 54°38' W 008°37'0 0.0 1011.6 11.7
2017-Sep-19 00:00N 54°38' W 008°37'0 0.0 1011.5 11.8
2017-Sep-18 23:00N 54°38' W 008°37'0 0.0 1012.0 11.4
2017-Sep-18 22:00N 54°38' W 008°37'0 0.0 1012.2 11.2
2017-Sep-18 21:00N 54°38' W 008°37'0 0.0 1012.4 11.7
2017-Sep-18 20:00N 54°38' W 008°37'0 0.0 1012.4 12.6
2017-Sep-18 19:00N 54°38' W 008°37'0 0.0 1012.3 15.3
2017-Sep-18 18:00N 54°38' W 008°37'0 0.0 1012.3 17.2
2017-Sep-18 17:00N 54°38' W 008°37'0 0.0 1012.4 19.7
2017-Sep-18 16:00N 54°38' W 008°37'0 0.0 1012.5 21.8
2017-Sep-18 15:00N 54°38' W 008°37'0 0.0 1012.9 22.9
2017-Sep-18 14:00N 54°38' W 008°37'0 0.0 1013.3 23.4
2017-Sep-18 13:00N 54°38' W 008°37'0 0.0 1013.2 24.5
2017-Sep-18 12:00N 54°38' W 008°37'0 0.0 1013.4 25.6
2017-Sep-18 11:00N 54°38' W 008°37'0 0.0 1013.3 25.3
2017-Sep-18 10:00N 54°38' W 008°37'0 0.0 1013.5 25.2
2017-Sep-18 09:00N 54°38' W 008°37'0 0.0 1013.4 24.4
2017-Sep-18 08:00N 54°38' W 008°37'0 0.0 1013.2 18.7
2017-Sep-18 07:00N 54°38' W 008°37'0 0.0 1013.1 7.8
2017-Sep-18 06:00N 54°38' W 008°37'0 0.0 1012.9 7.3
2017-Sep-18 05:00N 54°38' W 008°37'0 0.0 1012.7 7.8
2017-Sep-18 04:00N 54°38' W 008°37'0 0.0 1012.8 7.6
2017-Sep-18 03:00N 54°38' W 008°37'0 0.0 1012.8 7.7
2017-Sep-18 02:00N 54°38' W 008°37'0 0.0 1012.8 7.7
2017-Sep-18 01:00N 54°38' W 008°37'0 0.0 1012.9 7.9
2017-Sep-18 00:00N 54°38' W 008°37'0 0.0 1012.9 8.2
2017-Sep-17 23:00N 54°38' W 008°37'0 0.0 1012.8 9.0
2017-Sep-17 22:00N 54°38' W 008°37'0 0.0 1013.0 10.2
2017-Sep-17 21:00N 54°38' W 008°37'0 0.0 1012.9 10.8
2017-Sep-17 20:00N 54°38' W 008°37'0 0.0 1013.0 11.6
2017-Sep-17 19:00N 54°38' W 008°37'0 0.0 1012.7 13.0
2017-Sep-17 18:00N 54°38' W 008°37'0 0.0 1012.4 15.6
2017-Sep-17 17:00N 54°38' W 008°37'0 0.0 1012.0 17.8
2017-Sep-17 16:00N 54°38' W 008°37'0 0.0 1011.7 18.5
2017-Sep-17 15:00N 54°38' W 008°37'0 0.0 1011.6 19.8
2017-Sep-17 14:00N 54°38' W 008°37'0 0.0 1011.6 24.1
2017-Sep-17 13:00N 54°38' W 008°37'0 0.0 1011.9 25.0
2017-Sep-17 12:00N 54°38' W 008°37'0 0.0 1011.6 22.4
2017-Sep-17 11:00N 54°38' W 008°37'0 0.0 1011.6 22.2
2017-Sep-17 10:00N 54°38' W 008°37'0 0.0 1011.6 22.3
2017-Sep-17 09:00N 54°38' W 008°37'0 0.0 1011.4 20.8
2017-Sep-17 08:00N 54°38' W 008°37'0 0.0 1011.0 20.1
2017-Sep-17 07:00N 54°38' W 008°37'0 0.0 1010.7 10.4
2017-Sep-17 06:00N 54°38' W 008°37'0 0.0 1010.1 6.8
2017-Sep-17 05:00N 54°38' W 008°37'0 0.0 1009.4 6.5
2017-Sep-17 04:00N 54°38' W 008°37'0 0.0 1009.4 7.1
2017-Sep-17 03:00N 54°38' W 008°37'0 0.0 1009.2 6.9
2017-Sep-17 02:00N 54°38' W 008°37'0 0.0 1009.2 7.3
2017-Sep-17 01:00N 54°38' W 008°37'0 0.0 1009.1 7.1
2017-Sep-17 00:00N 54°38' W 008°37'0 0.0 1008.9 6.8
2017-Sep-16 23:00N 54°38' W 008°37'0 0.0 1008.7 7.1
2017-Sep-16 22:00N 54°38' W 008°37'0 0.0 1008.4 7.5
2017-Sep-16 21:00N 54°38' W 008°37'0 0.0 1008.2 8.3
2017-Sep-16 20:00N 54°38' W 008°37'0 0.0 1008.2 9.4
2017-Sep-16 19:00N 54°38' W 008°37'0 0.0 1007.9 10.0
2017-Sep-16 18:00N 54°38' W 008°37'0 0.0 1007.9 10.5
2017-Sep-16 17:00N 54°38' W 008°37'0 0.0 1007.9 10.9
2017-Sep-16 16:00N 54°38' W 008°37'0 0.0 1007.9 11.3
2017-Sep-16 15:00N 54°38' W 008°37'0 0.0 1008.2 11.0
2017-Sep-16 14:00N 54°38' W 008°37'0 0.0 1008.6 10.9
2017-Sep-16 13:00N 54°38' W 008°37'0 0.0 1009.0 12.1
2017-Sep-16 12:00N 54°38' W 008°37'0 0.0 1009.2 11.9
2017-Sep-16 11:00N 54°38' W 008°37'0 0.0 1009.5 11.8
2017-Sep-16 10:00N 54°38' W 008°37'0 0.0 1009.6 12.4
2017-Sep-16 09:00N 54°38' W 008°37'0 0.0 1009.6 10.6
2017-Sep-16 08:00N 54°38' W 008°37'0 0.0 1009.9 10.1
2017-Sep-16 07:00N 54°38' W 008°37'0 0.0 1010.0 9.6
2017-Sep-16 06:00N 54°38' W 008°37'0 0.0 1010.1 9.6
2017-Sep-16 05:00N 54°38' W 008°37'0 0.0 1009.9 9.8
2017-Sep-16 04:00N 54°38' W 008°37'0 0.0 1010.6 9.9
2017-Sep-16 03:00N 54°38' W 008°37'0 0.0 1010.8 9.8
2017-Sep-16 02:00N 54°38' W 008°37'0 0.0 1011.1 9.7
2017-Sep-16 01:00N 54°38' W 008°37'0 0.0 1011.5 10.0
2017-Sep-16 00:00N 54°38' W 008°37'   1011.8 10.2

Dump ship's entire track history